sensor_id;sensor_type;location;lat;lon;timestamp;P1;durP1;ratioP1;P2;durP2;ratioP2
8871;SDS011;4472;52.092;9.820;2023-12-14T00:02:44;10.57;;;7.00;;
8871;SDS011;4472;52.092;9.820;2023-12-14T00:05:31;11.93;;;7.67;;
8871;SDS011;4472;52.092;9.820;2023-12-14T00:08:18;12.67;;;7.93;;
8871;SDS011;4472;52.092;9.820;2023-12-14T00:11:09;13.13;;;8.47;;
8871;SDS011;4472;52.092;9.820;2023-12-14T00:13:58;11.63;;;7.70;;
8871;SDS011;4472;52.092;9.820;2023-12-14T00:16:45;11.60;;;7.97;;
8871;SDS011;4472;52.092;9.820;2023-12-14T00:19:32;12.07;;;8.00;;
8871;SDS011;4472;52.092;9.820;2023-12-14T00:22:19;9.37;;;7.17;;
8871;SDS011;4472;52.092;9.820;2023-12-14T00:25:07;10.53;;;7.70;;
8871;SDS011;4472;52.092;9.820;2023-12-14T00:27:54;10.03;;;7.53;;
8871;SDS011;4472;52.092;9.820;2023-12-14T00:30:43;9.00;;;7.10;;
8871;SDS011;4472;52.092;9.820;2023-12-14T00:33:30;10.13;;;7.60;;
8871;SDS011;4472;52.092;9.820;2023-12-14T00:36:18;8.97;;;7.13;;
8871;SDS011;4472;52.092;9.820;2023-12-14T00:39:05;10.27;;;7.47;;
8871;SDS011;4472;52.092;9.820;2023-12-14T00:41:53;8.97;;;6.43;;
8871;SDS011;4472;52.092;9.820;2023-12-14T00:44:40;7.90;;;5.70;;
8871;SDS011;4472;52.092;9.820;2023-12-14T00:47:28;8.20;;;5.50;;
8871;SDS011;4472;52.092;9.820;2023-12-14T00:50:16;7.47;;;5.67;;
8871;SDS011;4472;52.092;9.820;2023-12-14T00:53:03;6.73;;;5.07;;
8871;SDS011;4472;52.092;9.820;2023-12-14T00:55:50;5.83;;;4.60;;
8871;SDS011;4472;52.092;9.820;2023-12-14T00:58:37;6.83;;;4.77;;
8871;SDS011;4472;52.092;9.820;2023-12-14T01:01:24;6.50;;;4.93;;
8871;SDS011;4472;52.092;9.820;2023-12-14T01:04:13;7.33;;;4.90;;
8871;SDS011;4472;52.092;9.820;2023-12-14T01:07:00;8.10;;;5.97;;
8871;SDS011;4472;52.092;9.820;2023-12-14T01:09:47;7.20;;;6.07;;
8871;SDS011;4472;52.092;9.820;2023-12-14T01:12:34;7.10;;;5.47;;
8871;SDS011;4472;52.092;9.820;2023-12-14T01:15:21;7.50;;;5.50;;
8871;SDS011;4472;52.092;9.820;2023-12-14T01:18:09;8.20;;;5.37;;
8871;SDS011;4472;52.092;9.820;2023-12-14T01:20:57;6.83;;;5.47;;
8871;SDS011;4472;52.092;9.820;2023-12-14T01:23:47;7.60;;;5.77;;
8871;SDS011;4472;52.092;9.820;2023-12-14T01:26:34;7.70;;;5.40;;
8871;SDS011;4472;52.092;9.820;2023-12-14T01:29:21;7.80;;;5.60;;
8871;SDS011;4472;52.092;9.820;2023-12-14T01:32:08;8.60;;;5.37;;
8871;SDS011;4472;52.092;9.820;2023-12-14T01:34:55;6.97;;;5.07;;
8871;SDS011;4472;52.092;9.820;2023-12-14T01:37:44;6.87;;;4.47;;
8871;SDS011;4472;52.092;9.820;2023-12-14T01:40:31;5.30;;;3.90;;
8871;SDS011;4472;52.092;9.820;2023-12-14T01:43:18;5.57;;;4.80;;
8871;SDS011;4472;52.092;9.820;2023-12-14T01:46:05;4.93;;;4.00;;
8871;SDS011;4472;52.092;9.820;2023-12-14T01:48:52;6.17;;;4.70;;
8871;SDS011;4472;52.092;9.820;2023-12-14T01:51:39;4.30;;;3.90;;
8871;SDS011;4472;52.092;9.820;2023-12-14T01:54:28;6.90;;;4.30;;
8871;SDS011;4472;52.092;9.820;2023-12-14T01:57:15;4.77;;;4.00;;
8871;SDS011;4472;52.092;9.820;2023-12-14T02:00:02;4.50;;;3.90;;
8871;SDS011;4472;52.092;9.820;2023-12-14T02:02:50;5.17;;;4.20;;
8871;SDS011;4472;52.092;9.820;2023-12-14T02:05:38;5.70;;;4.10;;
8871;SDS011;4472;52.092;9.820;2023-12-14T02:08:25;7.00;;;3.87;;
8871;SDS011;4472;52.092;9.820;2023-12-14T02:11:15;6.20;;;4.00;;
8871;SDS011;4472;52.092;9.820;2023-12-14T02:14:05;6.03;;;4.23;;
8871;SDS011;4472;52.092;9.820;2023-12-14T02:16:52;5.77;;;4.27;;
8871;SDS011;4472;52.092;9.820;2023-12-14T02:19:40;5.33;;;4.20;;
8871;SDS011;4472;52.092;9.820;2023-12-14T02:22:35;7.97;;;4.40;;
8871;SDS011;4472;52.092;9.820;2023-12-14T02:25:34;8.57;;;5.60;;
8871;SDS011;4472;52.092;9.820;2023-12-14T02:28:21;9.60;;;5.90;;
8871;SDS011;4472;52.092;9.820;2023-12-14T02:31:08;8.33;;;5.17;;
8871;SDS011;4472;52.092;9.820;2023-12-14T02:33:55;8.37;;;5.70;;
8871;SDS011;4472;52.092;9.820;2023-12-14T02:36:43;7.77;;;5.40;;
8871;SDS011;4472;52.092;9.820;2023-12-14T02:39:31;8.17;;;5.80;;
8871;SDS011;4472;52.092;9.820;2023-12-14T02:42:18;6.13;;;5.00;;
8871;SDS011;4472;52.092;9.820;2023-12-14T02:45:06;9.30;;;5.67;;
8871;SDS011;4472;52.092;9.820;2023-12-14T02:47:54;7.83;;;5.87;;
8871;SDS011;4472;52.092;9.820;2023-12-14T02:50:41;8.60;;;6.27;;
8871;SDS011;4472;52.092;9.820;2023-12-14T02:53:29;7.87;;;5.90;;
8871;SDS011;4472;52.092;9.820;2023-12-14T02:56:17;7.93;;;5.97;;
8871;SDS011;4472;52.092;9.820;2023-12-14T02:59:04;7.67;;;5.50;;
8871;SDS011;4472;52.092;9.820;2023-12-14T03:01:51;7.70;;;5.70;;
8871;SDS011;4472;52.092;9.820;2023-12-14T03:04:39;8.87;;;6.47;;
8871;SDS011;4472;52.092;9.820;2023-12-14T03:07:26;11.20;;;7.10;;
8871;SDS011;4472;52.092;9.820;2023-12-14T03:10:13;9.30;;;6.97;;
8871;SDS011;4472;52.092;9.820;2023-12-14T03:13:01;8.10;;;6.30;;
8871;SDS011;4472;52.092;9.820;2023-12-14T03:15:48;6.93;;;6.03;;
8871;SDS011;4472;52.092;9.820;2023-12-14T03:18:35;8.03;;;6.17;;
8871;SDS011;4472;52.092;9.820;2023-12-14T03:21:23;6.90;;;6.07;;
8871;SDS011;4472;52.092;9.820;2023-12-14T03:24:10;7.30;;;5.93;;
8871;SDS011;4472;52.092;9.820;2023-12-14T03:26:57;6.53;;;5.20;;
8871;SDS011;4472;52.092;9.820;2023-12-14T03:29:45;6.20;;;4.83;;
8871;SDS011;4472;52.092;9.820;2023-12-14T03:32:33;6.37;;;4.70;;
8871;SDS011;4472;52.092;9.820;2023-12-14T03:35:20;5.57;;;4.37;;
8871;SDS011;4472;52.092;9.820;2023-12-14T03:38:07;5.00;;;4.10;;
8871;SDS011;4472;52.092;9.820;2023-12-14T03:40:55;5.63;;;5.03;;
8871;SDS011;4472;52.092;9.820;2023-12-14T03:43:42;4.93;;;4.23;;
8871;SDS011;4472;52.092;9.820;2023-12-14T03:46:31;4.93;;;4.17;;
8871;SDS011;4472;52.092;9.820;2023-12-14T03:49:19;4.87;;;4.37;;
8871;SDS011;4472;52.092;9.820;2023-12-14T03:52:08;6.37;;;4.53;;
8871;SDS011;4472;52.092;9.820;2023-12-14T03:54:55;5.10;;;4.60;;
8871;SDS011;4472;52.092;9.820;2023-12-14T03:57:42;5.00;;;4.43;;
8871;SDS011;4472;52.092;9.820;2023-12-14T04:00:29;5.13;;;4.53;;
8871;SDS011;4472;52.092;9.820;2023-12-14T04:03:18;5.87;;;4.47;;
8871;SDS011;4472;52.092;9.820;2023-12-14T04:06:05;7.80;;;5.07;;
8871;SDS011;4472;52.092;9.820;2023-12-14T04:08:53;5.50;;;4.17;;
8871;SDS011;4472;52.092;9.820;2023-12-14T04:11:40;5.83;;;4.60;;
8871;SDS011;4472;52.092;9.820;2023-12-14T04:14:27;5.10;;;4.60;;
8871;SDS011;4472;52.092;9.820;2023-12-14T04:17:14;6.80;;;5.50;;
8871;SDS011;4472;52.092;9.820;2023-12-14T04:20:03;6.80;;;5.40;;
8871;SDS011;4472;52.092;9.820;2023-12-14T04:22:52;5.93;;;5.00;;
8871;SDS011;4472;52.092;9.820;2023-12-14T04:25:39;8.23;;;6.17;;
8871;SDS011;4472;52.092;9.820;2023-12-14T04:28:26;10.77;;;6.60;;
8871;SDS011;4472;52.092;9.820;2023-12-14T04:31:14;7.53;;;5.33;;
8871;SDS011;4472;52.092;9.820;2023-12-14T04:34:01;8.50;;;6.43;;
8871;SDS011;4472;52.092;9.820;2023-12-14T04:36:49;9.70;;;7.37;;
8871;SDS011;4472;52.092;9.820;2023-12-14T04:39:38;9.80;;;7.40;;
8871;SDS011;4472;52.092;9.820;2023-12-14T04:42:25;12.40;;;8.67;;
8871;SDS011;4472;52.092;9.820;2023-12-14T04:45:13;13.23;;;9.23;;
8871;SDS011;4472;52.092;9.820;2023-12-14T04:48:02;13.27;;;9.90;;
8871;SDS011;4472;52.092;9.820;2023-12-14T04:50:49;15.43;;;10.63;;
8871;SDS011;4472;52.092;9.820;2023-12-14T04:53:38;14.87;;;10.93;;
8871;SDS011;4472;52.092;9.820;2023-12-14T04:56:25;15.40;;;10.10;;
8871;SDS011;4472;52.092;9.820;2023-12-14T04:59:12;15.60;;;10.47;;
8871;SDS011;4472;52.092;9.820;2023-12-14T05:01:59;21.03;;;14.53;;
8871;SDS011;4472;52.092;9.820;2023-12-14T05:04:46;20.00;;;12.20;;
8871;SDS011;4472;52.092;9.820;2023-12-14T05:07:33;18.57;;;11.77;;
8871;SDS011;4472;52.092;9.820;2023-12-14T05:10:22;20.37;;;11.90;;
8871;SDS011;4472;52.092;9.820;2023-12-14T05:13:09;20.90;;;11.63;;
8871;SDS011;4472;52.092;9.820;2023-12-14T05:15:56;18.60;;;12.90;;
8871;SDS011;4472;52.092;9.820;2023-12-14T05:18:44;22.13;;;13.27;;
8871;SDS011;4472;52.092;9.820;2023-12-14T05:21:31;24.87;;;14.70;;
8871;SDS011;4472;52.092;9.820;2023-12-14T05:24:18;28.70;;;16.57;;
8871;SDS011;4472;52.092;9.820;2023-12-14T05:27:07;25.27;;;15.00;;
8871;SDS011;4472;52.092;9.820;2023-12-14T05:29:54;21.87;;;14.10;;
8871;SDS011;4472;52.092;9.820;2023-12-14T05:32:41;22.63;;;14.10;;
8871;SDS011;4472;52.092;9.820;2023-12-14T05:35:28;24.83;;;13.90;;
8871;SDS011;4472;52.092;9.820;2023-12-14T05:38:16;21.93;;;11.83;;
8871;SDS011;4472;52.092;9.820;2023-12-14T05:41:03;26.67;;;14.00;;
8871;SDS011;4472;52.092;9.820;2023-12-14T05:43:51;19.70;;;11.50;;
8871;SDS011;4472;52.092;9.820;2023-12-14T05:46:39;23.93;;;11.10;;
8871;SDS011;4472;52.092;9.820;2023-12-14T05:49:26;24.47;;;13.00;;
8871;SDS011;4472;52.092;9.820;2023-12-14T05:52:13;15.77;;;9.73;;
8871;SDS011;4472;52.092;9.820;2023-12-14T05:55:00;25.27;;;13.27;;
8871;SDS011;4472;52.092;9.820;2023-12-14T05:57:47;20.43;;;11.73;;
8871;SDS011;4472;52.092;9.820;2023-12-14T06:00:36;28.10;;;14.87;;
8871;SDS011;4472;52.092;9.820;2023-12-14T06:03:25;27.53;;;14.27;;
8871;SDS011;4472;52.092;9.820;2023-12-14T06:06:12;34.43;;;19.73;;
8871;SDS011;4472;52.092;9.820;2023-12-14T06:08:59;34.67;;;19.57;;
8871;SDS011;4472;52.092;9.820;2023-12-14T06:11:47;33.53;;;17.73;;
8871;SDS011;4472;52.092;9.820;2023-12-14T06:14:34;34.57;;;18.70;;
8871;SDS011;4472;52.092;9.820;2023-12-14T06:17:23;37.33;;;18.83;;
8871;SDS011;4472;52.092;9.820;2023-12-14T06:20:10;31.53;;;15.90;;
8871;SDS011;4472;52.092;9.820;2023-12-14T06:22:58;31.27;;;15.13;;
8871;SDS011;4472;52.092;9.820;2023-12-14T06:25:46;34.83;;;18.33;;
8871;SDS011;4472;52.092;9.820;2023-12-14T06:28:33;35.47;;;18.00;;
8871;SDS011;4472;52.092;9.820;2023-12-14T06:31:20;36.47;;;17.33;;
8871;SDS011;4472;52.092;9.820;2023-12-14T06:34:09;30.50;;;16.93;;
8871;SDS011;4472;52.092;9.820;2023-12-14T06:36:56;34.13;;;18.80;;
8871;SDS011;4472;52.092;9.820;2023-12-14T06:39:45;28.00;;;17.37;;
8871;SDS011;4472;52.092;9.820;2023-12-14T06:42:32;34.23;;;18.20;;
8871;SDS011;4472;52.092;9.820;2023-12-14T06:45:20;19.17;;;11.10;;
8871;SDS011;4472;52.092;9.820;2023-12-14T06:48:07;17.20;;;11.93;;
8871;SDS011;4472;52.092;9.820;2023-12-14T06:50:55;20.90;;;12.40;;
8871;SDS011;4472;52.092;9.820;2023-12-14T06:53:43;19.83;;;12.00;;
8871;SDS011;4472;52.092;9.820;2023-12-14T06:56:31;17.77;;;11.83;;
8871;SDS011;4472;52.092;9.820;2023-12-14T06:59:18;18.17;;;12.27;;
8871;SDS011;4472;52.092;9.820;2023-12-14T07:02:05;19.83;;;12.70;;
8871;SDS011;4472;52.092;9.820;2023-12-14T07:04:53;17.77;;;11.33;;
8871;SDS011;4472;52.092;9.820;2023-12-14T07:07:42;20.13;;;13.33;;
8871;SDS011;4472;52.092;9.820;2023-12-14T07:10:29;22.23;;;14.53;;
8871;SDS011;4472;52.092;9.820;2023-12-14T07:13:16;18.63;;;13.00;;
8871;SDS011;4472;52.092;9.820;2023-12-14T07:16:04;19.70;;;12.60;;
8871;SDS011;4472;52.092;9.820;2023-12-14T07:18:53;19.33;;;13.60;;
8871;SDS011;4472;52.092;9.820;2023-12-14T07:21:40;17.67;;;11.93;;
8871;SDS011;4472;52.092;9.820;2023-12-14T07:24:28;18.30;;;12.33;;
8871;SDS011;4472;52.092;9.820;2023-12-14T07:27:16;16.87;;;10.83;;
8871;SDS011;4472;52.092;9.820;2023-12-14T07:30:03;20.50;;;12.00;;
8871;SDS011;4472;52.092;9.820;2023-12-14T07:32:51;19.90;;;13.13;;
8871;SDS011;4472;52.092;9.820;2023-12-14T07:35:38;16.63;;;11.83;;
8871;SDS011;4472;52.092;9.820;2023-12-14T07:38:26;17.00;;;11.70;;
8871;SDS011;4472;52.092;9.820;2023-12-14T07:41:14;16.53;;;12.57;;
8871;SDS011;4472;52.092;9.820;2023-12-14T07:44:04;17.00;;;11.57;;
8871;SDS011;4472;52.092;9.820;2023-12-14T07:46:51;18.77;;;12.27;;
8871;SDS011;4472;52.092;9.820;2023-12-14T07:49:38;15.57;;;10.63;;
8871;SDS011;4472;52.092;9.820;2023-12-14T07:52:25;17.33;;;10.47;;
8871;SDS011;4472;52.092;9.820;2023-12-14T07:55:12;15.37;;;10.60;;
8871;SDS011;4472;52.092;9.820;2023-12-14T07:58:01;18.53;;;11.97;;
8871;SDS011;4472;52.092;9.820;2023-12-14T08:00:48;19.43;;;11.97;;
8871;SDS011;4472;52.092;9.820;2023-12-14T08:03:35;17.37;;;10.70;;
8871;SDS011;4472;52.092;9.820;2023-12-14T08:06:23;16.20;;;11.57;;
8871;SDS011;4472;52.092;9.820;2023-12-14T08:09:10;18.13;;;11.67;;
8871;SDS011;4472;52.092;9.820;2023-12-14T08:11:57;17.93;;;12.53;;
8871;SDS011;4472;52.092;9.820;2023-12-14T08:14:51;14.50;;;11.70;;
8871;SDS011;4472;52.092;9.820;2023-12-14T08:17:39;14.63;;;10.63;;
8871;SDS011;4472;52.092;9.820;2023-12-14T08:20:27;13.30;;;10.40;;
8871;SDS011;4472;52.092;9.820;2023-12-14T08:23:14;13.47;;;10.20;;
8871;SDS011;4472;52.092;9.820;2023-12-14T08:26:02;13.57;;;10.63;;
8871;SDS011;4472;52.092;9.820;2023-12-14T08:28:50;14.63;;;11.40;;
8871;SDS011;4472;52.092;9.820;2023-12-14T08:31:38;14.20;;;9.93;;
8871;SDS011;4472;52.092;9.820;2023-12-14T08:34:25;13.60;;;10.63;;
8871;SDS011;4472;52.092;9.820;2023-12-14T08:37:13;13.50;;;9.77;;
8871;SDS011;4472;52.092;9.820;2023-12-14T08:40:00;14.80;;;10.40;;
8871;SDS011;4472;52.092;9.820;2023-12-14T08:42:48;13.33;;;9.90;;
8871;SDS011;4472;52.092;9.820;2023-12-14T08:45:35;13.50;;;9.73;;
8871;SDS011;4472;52.092;9.820;2023-12-14T08:48:24;17.10;;;10.03;;
8871;SDS011;4472;52.092;9.820;2023-12-14T08:51:11;13.67;;;10.07;;
8871;SDS011;4472;52.092;9.820;2023-12-14T08:53:58;12.50;;;9.70;;
8871;SDS011;4472;52.092;9.820;2023-12-14T08:56:45;12.30;;;9.43;;
8871;SDS011;4472;52.092;9.820;2023-12-14T08:59:33;11.87;;;9.33;;
8871;SDS011;4472;52.092;9.820;2023-12-14T09:02:20;13.97;;;10.83;;
8871;SDS011;4472;52.092;9.820;2023-12-14T09:05:08;18.40;;;12.93;;
8871;SDS011;4472;52.092;9.820;2023-12-14T09:07:55;19.50;;;15.10;;
8871;SDS011;4472;52.092;9.820;2023-12-14T09:10:44;18.63;;;14.03;;
8871;SDS011;4472;52.092;9.820;2023-12-14T09:13:31;16.83;;;12.93;;
8871;SDS011;4472;52.092;9.820;2023-12-14T09:16:18;17.07;;;13.07;;
8871;SDS011;4472;52.092;9.820;2023-12-14T09:19:05;14.83;;;9.90;;
8871;SDS011;4472;52.092;9.820;2023-12-14T09:21:54;16.33;;;11.23;;
8871;SDS011;4472;52.092;9.820;2023-12-14T09:24:41;12.27;;;8.70;;
8871;SDS011;4472;52.092;9.820;2023-12-14T09:27:29;14.10;;;9.47;;
8871;SDS011;4472;52.092;9.820;2023-12-14T09:30:16;12.37;;;9.27;;
8871;SDS011;4472;52.092;9.820;2023-12-14T09:33:03;12.97;;;9.73;;
8871;SDS011;4472;52.092;9.820;2023-12-14T09:35:51;13.20;;;10.20;;
8871;SDS011;4472;52.092;9.820;2023-12-14T09:38:39;13.60;;;10.63;;
8871;SDS011;4472;52.092;9.820;2023-12-14T09:41:26;13.30;;;10.20;;
8871;SDS011;4472;52.092;9.820;2023-12-14T09:44:14;13.67;;;9.93;;
8871;SDS011;4472;52.092;9.820;2023-12-14T09:47:01;13.60;;;10.53;;
8871;SDS011;4472;52.092;9.820;2023-12-14T09:49:48;16.60;;;12.47;;
8871;SDS011;4472;52.092;9.820;2023-12-14T09:52:38;14.63;;;9.57;;
8871;SDS011;4472;52.092;9.820;2023-12-14T09:55:27;14.37;;;10.00;;
8871;SDS011;4472;52.092;9.820;2023-12-14T09:58:14;15.73;;;10.13;;
8871;SDS011;4472;52.092;9.820;2023-12-14T10:01:01;8.60;;;6.33;;
8871;SDS011;4472;52.092;9.820;2023-12-14T10:03:49;10.50;;;6.67;;
8871;SDS011;4472;52.092;9.820;2023-12-14T10:06:37;7.67;;;6.03;;
8871;SDS011;4472;52.092;9.820;2023-12-14T10:09:25;7.57;;;5.87;;
8871;SDS011;4472;52.092;9.820;2023-12-14T10:12:14;6.73;;;5.53;;
8871;SDS011;4472;52.092;9.820;2023-12-14T10:15:04;7.60;;;5.87;;
8871;SDS011;4472;52.092;9.820;2023-12-14T10:17:51;7.97;;;5.77;;
8871;SDS011;4472;52.092;9.820;2023-12-14T10:20:39;7.80;;;6.30;;
8871;SDS011;4472;52.092;9.820;2023-12-14T10:23:27;9.13;;;7.00;;
8871;SDS011;4472;52.092;9.820;2023-12-14T10:26:15;10.87;;;7.23;;
8871;SDS011;4472;52.092;9.820;2023-12-14T10:29:04;11.67;;;7.77;;
8871;SDS011;4472;52.092;9.820;2023-12-14T10:31:51;11.53;;;8.67;;
8871;SDS011;4472;52.092;9.820;2023-12-14T10:34:39;12.93;;;9.03;;
8871;SDS011;4472;52.092;9.820;2023-12-14T10:37:29;11.97;;;9.37;;
8871;SDS011;4472;52.092;9.820;2023-12-14T10:40:19;12.60;;;8.40;;
8871;SDS011;4472;52.092;9.820;2023-12-14T10:43:06;10.93;;;7.70;;
8871;SDS011;4472;52.092;9.820;2023-12-14T10:45:56;9.27;;;7.13;;
8871;SDS011;4472;52.092;9.820;2023-12-14T10:48:43;9.57;;;6.80;;
8871;SDS011;4472;52.092;9.820;2023-12-14T10:51:33;8.77;;;6.73;;
8871;SDS011;4472;52.092;9.820;2023-12-14T10:54:23;8.97;;;6.40;;
8871;SDS011;4472;52.092;9.820;2023-12-14T10:57:11;8.93;;;6.30;;
8871;SDS011;4472;52.092;9.820;2023-12-14T10:59:59;7.33;;;6.63;;
8871;SDS011;4472;52.092;9.820;2023-12-14T11:02:48;9.10;;;6.27;;
8871;SDS011;4472;52.092;9.820;2023-12-14T11:05:35;7.40;;;6.60;;
8871;SDS011;4472;52.092;9.820;2023-12-14T11:08:24;4.47;;;4.07;;
8871;SDS011;4472;52.092;9.820;2023-12-14T11:11:12;4.37;;;3.83;;
8871;SDS011;4472;52.092;9.820;2023-12-14T11:14:05;7.47;;;4.20;;
8871;SDS011;4472;52.092;9.820;2023-12-14T11:16:55;4.50;;;3.97;;
8871;SDS011;4472;52.092;9.820;2023-12-14T11:19:50;5.77;;;5.27;;
8871;SDS011;4472;52.092;9.820;2023-12-14T11:22:39;7.20;;;5.60;;
8871;SDS011;4472;52.092;9.820;2023-12-14T11:25:30;6.67;;;4.70;;
8871;SDS011;4472;52.092;9.820;2023-12-14T11:28:18;5.43;;;4.90;;
8871;SDS011;4472;52.092;9.820;2023-12-14T11:31:09;16.83;;;6.80;;
8871;SDS011;4472;52.092;9.820;2023-12-14T11:33:58;4.90;;;4.17;;
8871;SDS011;4472;52.092;9.820;2023-12-14T11:36:49;4.30;;;3.90;;
8871;SDS011;4472;52.092;9.820;2023-12-14T11:39:37;5.10;;;4.60;;
8871;SDS011;4472;52.092;9.820;2023-12-14T11:42:24;5.53;;;4.87;;
8871;SDS011;4472;52.092;9.820;2023-12-14T11:45:11;6.23;;;5.63;;
8871;SDS011;4472;52.092;9.820;2023-12-14T11:47:59;6.60;;;5.90;;
8871;SDS011;4472;52.092;9.820;2023-12-14T11:50:47;6.50;;;5.67;;
8871;SDS011;4472;52.092;9.820;2023-12-14T11:53:37;5.90;;;5.30;;
8871;SDS011;4472;52.092;9.820;2023-12-14T11:56:27;7.93;;;5.67;;
8871;SDS011;4472;52.092;9.820;2023-12-14T11:59:16;7.23;;;5.67;;
8871;SDS011;4472;52.092;9.820;2023-12-14T12:02:04;7.20;;;6.47;;
8871;SDS011;4472;52.092;9.820;2023-12-14T12:04:51;7.27;;;6.40;;
8871;SDS011;4472;52.092;9.820;2023-12-14T12:07:39;8.97;;;6.60;;
8871;SDS011;4472;52.092;9.820;2023-12-14T12:10:30;6.67;;;5.90;;
8871;SDS011;4472;52.092;9.820;2023-12-14T12:13:18;7.53;;;6.40;;
8871;SDS011;4472;52.092;9.820;2023-12-14T12:16:06;7.53;;;6.73;;
8871;SDS011;4472;52.092;9.820;2023-12-14T12:18:56;8.93;;;6.83;;
8871;SDS011;4472;52.092;9.820;2023-12-14T12:21:43;9.60;;;7.07;;
8871;SDS011;4472;52.092;9.820;2023-12-14T12:24:30;8.27;;;7.07;;
8871;SDS011;4472;52.092;9.820;2023-12-14T12:27:19;9.20;;;6.83;;
8871;SDS011;4472;52.092;9.820;2023-12-14T12:30:07;8.40;;;6.23;;
8871;SDS011;4472;52.092;9.820;2023-12-14T12:32:55;8.87;;;6.43;;
8871;SDS011;4472;52.092;9.820;2023-12-14T12:35:42;7.60;;;6.73;;
8871;SDS011;4472;52.092;9.820;2023-12-14T12:38:29;8.83;;;6.17;;
8871;SDS011;4472;52.092;9.820;2023-12-14T12:41:17;7.63;;;6.73;;
8871;SDS011;4472;52.092;9.820;2023-12-14T12:44:05;8.07;;;6.57;;
8871;SDS011;4472;52.092;9.820;2023-12-14T12:46:53;9.50;;;7.07;;
8871;SDS011;4472;52.092;9.820;2023-12-14T12:49:44;9.93;;;7.10;;
8871;SDS011;4472;52.092;9.820;2023-12-14T12:52:31;9.60;;;7.23;;
8871;SDS011;4472;52.092;9.820;2023-12-14T12:55:19;12.87;;;7.60;;
8871;SDS011;4472;52.092;9.820;2023-12-14T12:58:06;8.77;;;7.03;;
8871;SDS011;4472;52.092;9.820;2023-12-14T13:00:54;8.10;;;6.20;;
8871;SDS011;4472;52.092;9.820;2023-12-14T13:03:42;9.63;;;7.00;;
8871;SDS011;4472;52.092;9.820;2023-12-14T13:06:29;8.73;;;6.53;;
8871;SDS011;4472;52.092;9.820;2023-12-14T13:09:17;9.93;;;6.63;;
8871;SDS011;4472;52.092;9.820;2023-12-14T13:12:05;9.10;;;6.53;;
8871;SDS011;4472;52.092;9.820;2023-12-14T13:14:53;8.47;;;7.07;;
8871;SDS011;4472;52.092;9.820;2023-12-14T13:17:41;12.70;;;7.70;;
8871;SDS011;4472;52.092;9.820;2023-12-14T13:20:29;9.07;;;7.20;;
8871;SDS011;4472;52.092;9.820;2023-12-14T13:23:16;9.50;;;7.33;;
8871;SDS011;4472;52.092;9.820;2023-12-14T13:26:04;9.37;;;7.50;;
8871;SDS011;4472;52.092;9.820;2023-12-14T13:28:51;11.17;;;7.73;;
8871;SDS011;4472;52.092;9.820;2023-12-14T13:31:38;9.77;;;7.00;;
8871;SDS011;4472;52.092;9.820;2023-12-14T13:34:29;10.60;;;7.53;;
8871;SDS011;4472;52.092;9.820;2023-12-14T13:37:18;9.03;;;7.37;;
8871;SDS011;4472;52.092;9.820;2023-12-14T13:40:06;9.17;;;6.97;;
8871;SDS011;4472;52.092;9.820;2023-12-14T13:42:55;10.70;;;7.53;;
8871;SDS011;4472;52.092;9.820;2023-12-14T13:45:45;12.33;;;7.87;;
8871;SDS011;4472;52.092;9.820;2023-12-14T13:48:33;10.37;;;7.47;;
8871;SDS011;4472;52.092;9.820;2023-12-14T13:51:21;11.27;;;7.57;;
8871;SDS011;4472;52.092;9.820;2023-12-14T13:54:09;11.70;;;8.60;;
8871;SDS011;4472;52.092;9.820;2023-12-14T13:56:56;12.50;;;8.13;;
8871;SDS011;4472;52.092;9.820;2023-12-14T13:59:43;12.73;;;7.87;;
8871;SDS011;4472;52.092;9.820;2023-12-14T14:02:31;12.67;;;8.50;;
8871;SDS011;4472;52.092;9.820;2023-12-14T14:05:18;12.30;;;8.00;;
8871;SDS011;4472;52.092;9.820;2023-12-14T14:08:07;12.07;;;8.20;;
8871;SDS011;4472;52.092;9.820;2023-12-14T14:10:54;12.97;;;8.10;;
8871;SDS011;4472;52.092;9.820;2023-12-14T14:13:41;13.00;;;8.00;;
8871;SDS011;4472;52.092;9.820;2023-12-14T14:16:28;10.00;;;7.57;;
8871;SDS011;4472;52.092;9.820;2023-12-14T14:19:16;12.93;;;7.83;;
8871;SDS011;4472;52.092;9.820;2023-12-14T14:22:03;11.03;;;7.50;;
8871;SDS011;4472;52.092;9.820;2023-12-14T14:24:52;12.13;;;8.00;;
8871;SDS011;4472;52.092;9.820;2023-12-14T14:27:39;11.90;;;6.97;;
8871;SDS011;4472;52.092;9.820;2023-12-14T14:30:27;10.63;;;7.63;;
8871;SDS011;4472;52.092;9.820;2023-12-14T14:33:16;10.60;;;7.27;;
8871;SDS011;4472;52.092;9.820;2023-12-14T14:36:04;11.90;;;7.63;;
8871;SDS011;4472;52.092;9.820;2023-12-14T14:38:53;12.40;;;8.20;;
8871;SDS011;4472;52.092;9.820;2023-12-14T14:41:43;14.07;;;8.13;;
8871;SDS011;4472;52.092;9.820;2023-12-14T14:44:31;15.60;;;8.87;;
8871;SDS011;4472;52.092;9.820;2023-12-14T14:47:18;13.87;;;8.60;;
8871;SDS011;4472;52.092;9.820;2023-12-14T14:50:06;15.03;;;8.90;;
8871;SDS011;4472;52.092;9.820;2023-12-14T14:52:53;12.97;;;8.20;;
8871;SDS011;4472;52.092;9.820;2023-12-14T14:55:41;16.80;;;8.57;;
8871;SDS011;4472;52.092;9.820;2023-12-14T14:58:29;14.23;;;8.70;;
8871;SDS011;4472;52.092;9.820;2023-12-14T15:01:16;12.77;;;8.77;;
8871;SDS011;4472;52.092;9.820;2023-12-14T15:04:04;15.17;;;9.10;;
8871;SDS011;4472;52.092;9.820;2023-12-14T15:06:51;16.60;;;8.83;;
8871;SDS011;4472;52.092;9.820;2023-12-14T15:09:38;15.40;;;8.87;;
8871;SDS011;4472;52.092;9.820;2023-12-14T15:12:26;14.47;;;9.00;;
8871;SDS011;4472;52.092;9.820;2023-12-14T15:15:14;14.53;;;8.53;;
8871;SDS011;4472;52.092;9.820;2023-12-14T15:18:01;15.87;;;9.33;;
8871;SDS011;4472;52.092;9.820;2023-12-14T15:20:49;12.60;;;8.73;;
8871;SDS011;4472;52.092;9.820;2023-12-14T15:23:38;13.47;;;9.07;;
8871;SDS011;4472;52.092;9.820;2023-12-14T15:26:29;14.83;;;9.83;;
8871;SDS011;4472;52.092;9.820;2023-12-14T15:29:19;16.23;;;9.03;;
8871;SDS011;4472;52.092;9.820;2023-12-14T15:32:08;15.00;;;9.13;;
8871;SDS011;4472;52.092;9.820;2023-12-14T15:34:57;16.80;;;8.87;;
8871;SDS011;4472;52.092;9.820;2023-12-14T15:37:45;13.33;;;8.73;;
8871;SDS011;4472;52.092;9.820;2023-12-14T15:40:33;12.60;;;8.73;;
8871;SDS011;4472;52.092;9.820;2023-12-14T15:43:21;12.10;;;8.37;;
8871;SDS011;4472;52.092;9.820;2023-12-14T15:46:08;13.63;;;8.83;;
8871;SDS011;4472;52.092;9.820;2023-12-14T15:48:58;13.27;;;8.47;;
8871;SDS011;4472;52.092;9.820;2023-12-14T15:51:45;13.87;;;8.60;;
8871;SDS011;4472;52.092;9.820;2023-12-14T15:54:32;17.93;;;10.37;;
8871;SDS011;4472;52.092;9.820;2023-12-14T15:57:19;14.53;;;9.13;;
8871;SDS011;4472;52.092;9.820;2023-12-14T16:00:07;16.10;;;9.13;;
8871;SDS011;4472;52.092;9.820;2023-12-14T16:02:55;12.10;;;8.93;;
8871;SDS011;4472;52.092;9.820;2023-12-14T16:05:43;15.73;;;8.93;;
8871;SDS011;4472;52.092;9.820;2023-12-14T16:08:31;16.60;;;10.00;;
8871;SDS011;4472;52.092;9.820;2023-12-14T16:11:18;14.63;;;8.70;;
8871;SDS011;4472;52.092;9.820;2023-12-14T16:14:09;11.00;;;8.20;;
8871;SDS011;4472;52.092;9.820;2023-12-14T16:16:56;14.70;;;8.97;;
8871;SDS011;4472;52.092;9.820;2023-12-14T16:19:46;11.53;;;8.20;;
8871;SDS011;4472;52.092;9.820;2023-12-14T16:22:34;15.03;;;8.63;;
8871;SDS011;4472;52.092;9.820;2023-12-14T16:25:22;11.73;;;7.97;;
8871;SDS011;4472;52.092;9.820;2023-12-14T16:28:10;13.23;;;8.87;;
8871;SDS011;4472;52.092;9.820;2023-12-14T16:30:57;14.63;;;8.70;;
8871;SDS011;4472;52.092;9.820;2023-12-14T16:33:50;12.10;;;9.00;;
8871;SDS011;4472;52.092;9.820;2023-12-14T16:36:37;14.20;;;8.87;;
8871;SDS011;4472;52.092;9.820;2023-12-14T16:39:25;14.50;;;9.37;;
8871;SDS011;4472;52.092;9.820;2023-12-14T16:42:13;11.90;;;9.00;;
8871;SDS011;4472;52.092;9.820;2023-12-14T16:45:00;14.23;;;10.70;;
8871;SDS011;4472;52.092;9.820;2023-12-14T16:47:48;15.53;;;10.97;;
8871;SDS011;4472;52.092;9.820;2023-12-14T16:50:35;21.47;;;10.90;;
8871;SDS011;4472;52.092;9.820;2023-12-14T16:53:24;13.20;;;9.10;;
8871;SDS011;4472;52.092;9.820;2023-12-14T16:56:12;12.87;;;9.40;;
8871;SDS011;4472;52.092;9.820;2023-12-14T16:59:03;12.30;;;8.80;;
8871;SDS011;4472;52.092;9.820;2023-12-14T17:01:51;14.07;;;9.60;;
8871;SDS011;4472;52.092;9.820;2023-12-14T17:04:38;17.50;;;10.27;;
8871;SDS011;4472;52.092;9.820;2023-12-14T17:07:25;13.53;;;9.27;;
8871;SDS011;4472;52.092;9.820;2023-12-14T17:10:13;12.37;;;9.20;;